AIZ270 LLBG-HECA
Flight info
| Callsign | AIZ270 |
|---|---|
| Flight time | 0h 55m |
| Altitude | 34000 |
| Route | SUVAS DCT PASOS DCT MELDO/N0464F330 A16 CVO |
| Aircraft | A21N/M-SDE2E3FGHIRWXY/LB1 |
Departure
| Time | 2026-05-04 22:00 |
|---|---|
| Airport | Ben Gurion International Airport (LLBG) |
Arrival
| Time | 2026-05-04 22:55 |
|---|---|
| Airport | Cairo International Airport (HECA) |
| Time | Latitude | Longitude | Altitude | Speed | Heading |
|---|---|---|---|---|---|
| 2026-05-04 21:22 | 32.00166 | 34.87507 | 126 ft | 0 kts | 263° |
| 2026-05-04 21:24 | 32.00166 | 34.87508 | 126 ft | 0 kts | 263° |
| 2026-05-04 21:33 | 32.00166 | 34.87509 | 121 ft | 0 kts | 263° |
| 2026-05-04 21:42 | 32.00167 | 34.87514 | 125 ft | 3 kts | 263° |
| 2026-05-04 21:42 | 32.00171 | 34.87545 | 124 ft | 4 kts | 260° |
| 2026-05-04 21:42 | 32.00174 | 34.87576 | 122 ft | 4 kts | 274° |
| 2026-05-04 21:43 | 32.00167 | 34.87602 | 122 ft | 4 kts | 319° |
| 2026-05-04 21:43 | 32.00152 | 34.87608 | 122 ft | 2 kts | 30° |
| 2026-05-04 21:43 | 32.00151 | 34.87607 | 122 ft | 1 kts | 31° |
| 2026-05-04 21:44 | 32.00150 | 34.87607 | 122 ft | 0 kts | 31° |
| 2026-05-04 21:48 | 32.00150 | 34.87606 | 122 ft | 0 kts | 31° |
| 2026-05-04 21:50 | 32.00152 | 34.87608 | 122 ft | 1 kts | 31° |
| 2026-05-04 21:50 | 32.00169 | 34.87619 | 123 ft | 4 kts | 31° |
| 2026-05-04 21:50 | 32.00202 | 34.87643 | 123 ft | 7 kts | 31° |
| 2026-05-04 21:50 | 32.00252 | 34.87678 | 122 ft | 10 kts | 31° |
| 2026-05-04 21:51 | 32.00317 | 34.87725 | 122 ft | 12 kts | 31° |
| 2026-05-04 21:51 | 32.00397 | 34.87781 | 125 ft | 15 kts | 31° |
| 2026-05-04 21:51 | 32.00469 | 34.87832 | 122 ft | 11 kts | 31° |
| 2026-05-04 21:51 | 32.00502 | 34.87857 | 121 ft | 5 kts | 33° |
| 2026-05-04 21:52 | 32.00542 | 34.87882 | 125 ft | 8 kts | 28° |
| 2026-05-04 21:52 | 32.00594 | 34.87921 | 125 ft | 10 kts | 33° |
| 2026-05-04 21:52 | 32.00649 | 34.87963 | 122 ft | 10 kts | 33° |
| 2026-05-04 21:52 | 32.00716 | 34.88014 | 121 ft | 13 kts | 33° |
| 2026-05-04 21:53 | 32.00799 | 34.88078 | 124 ft | 15 kts | 33° |
| 2026-05-04 21:53 | 32.00898 | 34.88145 | 124 ft | 17 kts | 28° |
| 2026-05-04 21:53 | 32.00993 | 34.88211 | 125 ft | 17 kts | 32° |
| 2026-05-04 21:53 | 32.01097 | 34.88288 | 122 ft | 19 kts | 32° |
| 2026-05-04 21:54 | 32.01181 | 34.88347 | 124 ft | 15 kts | 31° |
| 2026-05-04 21:54 | 32.01274 | 34.88418 | 126 ft | 17 kts | 35° |
| 2026-05-04 21:54 | 32.01363 | 34.88516 | 124 ft | 19 kts | 54° |
| 2026-05-04 21:54 | 32.01438 | 34.88649 | 125 ft | 20 kts | 56° |
| 2026-05-04 21:55 | 32.01490 | 34.88809 | 121 ft | 22 kts | 77° |
| 2026-05-04 21:55 | 32.01520 | 34.88992 | 123 ft | 23 kts | 81° |
| 2026-05-04 21:55 | 32.01537 | 34.89106 | 125 ft | 11 kts | 79° |
| 2026-05-04 21:55 | 32.01553 | 34.89208 | 123 ft | 14 kts | 79° |
| 2026-05-04 21:56 | 32.01590 | 34.89257 | 125 ft | 5 kts | 7° |
| 2026-05-04 21:56 | 32.01631 | 34.89263 | 123 ft | 7 kts | 0° |
| 2026-05-04 21:56 | 32.01663 | 34.89258 | 121 ft | 5 kts | 352° |
| 2026-05-04 21:56 | 32.01703 | 34.89250 | 122 ft | 7 kts | 350° |
| 2026-05-04 21:57 | 32.01755 | 34.89239 | 120 ft | 9 kts | 344° |
| 2026-05-04 21:57 | 32.01764 | 34.89204 | 122 ft | 0 kts | 258° |
| 2026-05-04 21:59 | 32.01761 | 34.89187 | 121 ft | 4 kts | 258° |
| 2026-05-04 21:59 | 32.01745 | 34.89090 | 121 ft | 37 kts | 259° |
| 2026-05-04 21:59 | 32.01657 | 34.88510 | 125 ft | 104 kts | 259° |
| 2026-05-04 21:59 | 32.01496 | 34.87451 | 126 ft | 156 kts | 260° |
| 2026-05-04 22:00 | 32.01306 | 34.86185 | 747 ft | 150 kts | 261° |
| 2026-05-04 22:00 | 32.01142 | 34.85393 | 1130 ft | 156 kts | 246° |
| 2026-05-04 22:00 | 32.00506 | 34.83828 | 1894 ft | 165 kts | 252° |
| 2026-05-04 22:00 | 32.00194 | 34.82465 | 2391 ft | 181 kts | 257° |
| 2026-05-04 22:01 | 31.99879 | 34.80938 | 3022 ft | 201 kts | 257° |
| 2026-05-04 22:01 | 31.99539 | 34.79278 | 3550 ft | 228 kts | 257° |
| 2026-05-04 22:01 | 31.99275 | 34.77990 | 4025 ft | 240 kts | 257° |
| 2026-05-04 22:01 | 31.98852 | 34.75394 | 5293 ft | 247 kts | 268° |
| 2026-05-04 22:02 | 31.99125 | 34.73379 | 6300 ft | 253 kts | 286° |
| 2026-05-04 22:02 | 31.99516 | 34.72087 | 6885 ft | 253 kts | 287° |
| 2026-05-04 22:02 | 32.00171 | 34.70150 | 7792 ft | 256 kts | 292° |
| 2026-05-04 22:02 | 32.00924 | 34.68234 | 8712 ft | 258 kts | 291° |
| 2026-05-04 22:03 | 32.01870 | 34.65637 | 9999 ft | 262 kts | 289° |
| 2026-05-04 22:03 | 32.02321 | 34.64276 | 10603 ft | 265 kts | 285° |
| 2026-05-04 22:03 | 32.02638 | 34.62174 | 11509 ft | 265 kts | 271° |
| 2026-05-04 22:03 | 32.02666 | 34.59975 | 12451 ft | 268 kts | 270° |
| 2026-05-04 22:04 | 32.02706 | 34.57763 | 13425 ft | 271 kts | 270° |
| 2026-05-04 22:04 | 32.02776 | 34.55529 | 14348 ft | 273 kts | 271° |
| 2026-05-04 22:04 | 32.02866 | 34.53309 | 15230 ft | 274 kts | 271° |
| 2026-05-04 22:04 | 32.02968 | 34.51056 | 16151 ft | 275 kts | 271° |
| 2026-05-04 22:05 | 32.03076 | 34.48802 | 17035 ft | 277 kts | 271° |
| 2026-05-04 22:05 | 32.03191 | 34.46474 | 17480 ft | 295 kts | 272° |
| 2026-05-04 22:05 | 32.03317 | 34.43979 | 17759 ft | 315 kts | 272° |
| 2026-05-04 22:05 | 32.03460 | 34.41381 | 18189 ft | 326 kts | 272° |
| 2026-05-04 22:06 | 32.03618 | 34.38656 | 18786 ft | 331 kts | 272° |
| 2026-05-04 22:06 | 32.03773 | 34.35967 | 19413 ft | 334 kts | 272° |
| 2026-05-04 22:06 | 32.03930 | 34.33222 | 20062 ft | 336 kts | 272° |
| 2026-05-04 22:06 | 32.04088 | 34.30455 | 20711 ft | 338 kts | 272° |
| 2026-05-04 22:07 | 32.04245 | 34.27674 | 21356 ft | 341 kts | 271° |
| 2026-05-04 22:07 | 32.04448 | 34.24875 | 21693 ft | 354 kts | 276° |
| 2026-05-04 22:07 | 32.05223 | 34.22042 | 21904 ft | 373 kts | 289° |
| 2026-05-04 22:07 | 32.06523 | 34.19307 | 22102 ft | 391 kts | 296° |
| 2026-05-04 22:08 | 32.08014 | 34.16559 | 22273 ft | 404 kts | 296° |
| 2026-05-04 22:08 | 32.09440 | 34.13676 | 22594 ft | 406 kts | 290° |
| 2026-05-04 22:08 | 32.10297 | 34.10537 | 23049 ft | 402 kts | 278° |
| 2026-05-04 22:08 | 32.10508 | 34.07256 | 23530 ft | 401 kts | 266° |
| 2026-05-04 22:09 | 32.10141 | 34.03976 | 23943 ft | 403 kts | 259° |
| 2026-05-04 22:09 | 32.09545 | 34.00775 | 24314 ft | 406 kts | 257° |
| 2026-05-04 22:09 | 32.08914 | 33.97511 | 24664 ft | 408 kts | 257° |
| 2026-05-04 22:09 | 32.08292 | 33.94236 | 25040 ft | 410 kts | 258° |
| 2026-05-04 22:10 | 32.07696 | 33.91048 | 25400 ft | 412 kts | 258° |
| 2026-05-04 22:10 | 32.07448 | 33.89713 | 25543 ft | 413 kts | 258° |
| 2026-05-04 22:10 | 32.06826 | 33.86403 | 25872 ft | 414 kts | 258° |
| 2026-05-04 22:10 | 32.06202 | 33.83083 | 26171 ft | 414 kts | 258° |
| 2026-05-04 22:11 | 32.05592 | 33.79814 | 26457 ft | 413 kts | 258° |
| 2026-05-04 22:11 | 32.04973 | 33.76507 | 26703 ft | 413 kts | 258° |
| 2026-05-04 22:11 | 32.04353 | 33.73182 | 26975 ft | 414 kts | 258° |
| 2026-05-04 22:11 | 32.03735 | 33.69865 | 27256 ft | 414 kts | 258° |
| 2026-05-04 22:12 | 32.03109 | 33.66538 | 27587 ft | 414 kts | 258° |
| 2026-05-04 22:12 | 32.02494 | 33.63231 | 27901 ft | 412 kts | 258° |
| 2026-05-04 22:12 | 32.01882 | 33.59928 | 28210 ft | 412 kts | 258° |
| 2026-05-04 22:12 | 32.01267 | 33.56634 | 28521 ft | 411 kts | 258° |
| 2026-05-04 22:13 | 32.00646 | 33.53349 | 28826 ft | 410 kts | 258° |
| 2026-05-04 22:13 | 32.00033 | 33.50096 | 29132 ft | 410 kts | 258° |
| 2026-05-04 22:13 | 31.99421 | 33.46820 | 29445 ft | 409 kts | 258° |
| 2026-05-04 22:13 | 31.98806 | 33.43537 | 29681 ft | 410 kts | 258° |
| 2026-05-04 22:14 | 31.98189 | 33.40254 | 29965 ft | 410 kts | 258° |
| 2026-05-04 22:14 | 31.97571 | 33.36978 | 30250 ft | 409 kts | 258° |
| 2026-05-04 22:14 | 31.96961 | 33.33753 | 30486 ft | 408 kts | 258° |
| 2026-05-04 22:14 | 31.96343 | 33.30492 | 30702 ft | 407 kts | 258° |
| 2026-05-04 22:15 | 31.95721 | 33.27215 | 30884 ft | 409 kts | 258° |
| 2026-05-04 22:15 | 31.95098 | 33.23936 | 31086 ft | 410 kts | 258° |
| 2026-05-04 22:15 | 31.94475 | 33.20660 | 31323 ft | 410 kts | 258° |
| 2026-05-04 22:15 | 31.93858 | 33.17422 | 31568 ft | 409 kts | 258° |
| 2026-05-04 22:16 | 31.93232 | 33.14146 | 31828 ft | 408 kts | 258° |
| 2026-05-04 22:16 | 31.92607 | 33.10876 | 32092 ft | 407 kts | 258° |
| 2026-05-04 22:16 | 31.91985 | 33.07624 | 32348 ft | 406 kts | 257° |
| 2026-05-04 22:16 | 31.91361 | 33.04371 | 32583 ft | 406 kts | 257° |
| 2026-05-04 22:17 | 31.90739 | 33.01132 | 32811 ft | 405 kts | 257° |
| 2026-05-04 22:17 | 31.90117 | 32.97898 | 33033 ft | 405 kts | 257° |
| 2026-05-04 22:17 | 31.89504 | 32.94715 | 33239 ft | 405 kts | 257° |
| 2026-05-04 22:17 | 31.88881 | 32.91486 | 33444 ft | 404 kts | 257° |
| 2026-05-04 22:18 | 31.88257 | 32.88254 | 33651 ft | 404 kts | 257° |
| 2026-05-04 22:18 | 31.87632 | 32.85025 | 33865 ft | 403 kts | 257° |
| 2026-05-04 22:18 | 31.87010 | 32.81812 | 34000 ft | 403 kts | 257° |
| 2026-05-04 22:18 | 31.86385 | 32.78588 | 34131 ft | 404 kts | 257° |
| 2026-05-04 22:19 | 31.85759 | 32.75367 | 34246 ft | 405 kts | 257° |
| 2026-05-04 22:19 | 31.85136 | 32.72166 | 34385 ft | 405 kts | 257° |
| 2026-05-04 22:19 | 31.84507 | 32.68934 | 34524 ft | 404 kts | 257° |
| 2026-05-04 22:19 | 31.83877 | 32.65705 | 34660 ft | 404 kts | 257° |
| 2026-05-04 22:20 | 31.83246 | 32.62478 | 34793 ft | 404 kts | 257° |
| 2026-05-04 22:20 | 31.82616 | 32.59262 | 34946 ft | 404 kts | 258° |
| 2026-05-04 22:20 | 31.81910 | 32.56063 | 35074 ft | 403 kts | 255° |
| 2026-05-04 22:20 | 31.81149 | 32.52927 | 35189 ft | 403 kts | 256° |
| 2026-05-04 22:21 | 31.80432 | 32.49735 | 35300 ft | 403 kts | 257° |
| 2026-05-04 22:21 | 31.79784 | 32.46530 | 35412 ft | 402 kts | 259° |
| 2026-05-04 22:21 | 31.79277 | 32.43292 | 35518 ft | 402 kts | 260° |
| 2026-05-04 22:21 | 31.78747 | 32.40050 | 35623 ft | 402 kts | 259° |
| 2026-05-04 22:22 | 31.78168 | 32.36870 | 35721 ft | 402 kts | 258° |
| 2026-05-04 22:22 | 31.76929 | 32.30459 | 35851 ft | 403 kts | 258° |
| 2026-05-04 22:23 | 31.75652 | 32.24034 | 36023 ft | 403 kts | 258° |
| 2026-05-04 22:23 | 31.74379 | 32.17648 | 36078 ft | 400 kts | 258° |
| 2026-05-04 22:24 | 31.73107 | 32.11287 | 36060 ft | 399 kts | 258° |
| 2026-05-04 22:24 | 31.71839 | 32.04966 | 36067 ft | 399 kts | 258° |
| 2026-05-04 22:25 | 31.70557 | 31.98599 | 36057 ft | 399 kts | 258° |
| 2026-05-04 22:25 | 31.69291 | 31.92294 | 36057 ft | 399 kts | 258° |
| 2026-05-04 22:26 | 31.68010 | 31.85945 | 36055 ft | 399 kts | 258° |
| 2026-05-04 22:26 | 31.66728 | 31.79594 | 36065 ft | 399 kts | 258° |
| 2026-05-04 22:27 | 31.65441 | 31.73247 | 36060 ft | 399 kts | 258° |
| 2026-05-04 22:27 | 31.64161 | 31.66952 | 36059 ft | 399 kts | 258° |
| 2026-05-04 22:28 | 31.62855 | 31.60607 | 36062 ft | 399 kts | 258° |
| 2026-05-04 22:28 | 31.61560 | 31.54258 | 36065 ft | 399 kts | 258° |
| 2026-05-04 22:29 | 31.60271 | 31.47963 | 36072 ft | 400 kts | 258° |
| 2026-05-04 22:29 | 31.58963 | 31.41615 | 36068 ft | 400 kts | 258° |
| 2026-05-04 22:30 | 31.57658 | 31.35274 | 36050 ft | 400 kts | 258° |
| 2026-05-04 22:30 | 31.56355 | 31.28967 | 36075 ft | 392 kts | 258° |
| 2026-05-04 22:30 | 31.55663 | 31.25911 | 35949 ft | 392 kts | 254° |
| 2026-05-04 22:31 | 31.54609 | 31.22972 | 35377 ft | 391 kts | 245° |
| 2026-05-04 22:31 | 31.53074 | 31.20311 | 34635 ft | 400 kts | 235° |
| 2026-05-04 22:31 | 31.51036 | 31.17980 | 33975 ft | 418 kts | 225° |
| 2026-05-04 22:31 | 31.48542 | 31.16119 | 33301 ft | 433 kts | 214° |
| 2026-05-04 22:32 | 31.45668 | 31.14873 | 32658 ft | 449 kts | 202° |
| 2026-05-04 22:32 | 31.42505 | 31.14374 | 32011 ft | 467 kts | 189° |
| 2026-05-04 22:32 | 31.39261 | 31.14688 | 31375 ft | 482 kts | 179° |
| 2026-05-04 22:32 | 31.35927 | 31.15348 | 30770 ft | 486 kts | 178° |
| 2026-05-04 22:33 | 31.32587 | 31.16030 | 30194 ft | 489 kts | 178° |
| 2026-05-04 22:33 | 31.29203 | 31.16695 | 29461 ft | 490 kts | 178° |
| 2026-05-04 22:33 | 31.25826 | 31.17336 | 28768 ft | 492 kts | 179° |
| 2026-05-04 22:33 | 31.22445 | 31.17970 | 28115 ft | 493 kts | 179° |
| 2026-05-04 22:34 | 31.19085 | 31.18597 | 27478 ft | 495 kts | 179° |
| 2026-05-04 22:34 | 31.15674 | 31.19233 | 26819 ft | 496 kts | 179° |
| 2026-05-04 22:34 | 31.12245 | 31.19871 | 26135 ft | 497 kts | 178° |
| 2026-05-04 22:34 | 31.08821 | 31.20509 | 25494 ft | 499 kts | 178° |
| 2026-05-04 22:35 | 31.05403 | 31.21146 | 24841 ft | 495 kts | 178° |
| 2026-05-04 22:35 | 31.02007 | 31.21778 | 24380 ft | 492 kts | 178° |
| 2026-05-04 22:35 | 30.98663 | 31.22398 | 24182 ft | 491 kts | 179° |
| 2026-05-04 22:35 | 30.95280 | 31.23022 | 24116 ft | 490 kts | 179° |
| 2026-05-04 22:36 | 30.91899 | 31.23644 | 24110 ft | 490 kts | 179° |
| 2026-05-04 22:36 | 30.88520 | 31.24267 | 24090 ft | 489 kts | 178° |
| 2026-05-04 22:36 | 30.85197 | 31.24884 | 24095 ft | 488 kts | 178° |
| 2026-05-04 22:36 | 30.81833 | 31.25507 | 24110 ft | 487 kts | 178° |
| 2026-05-04 22:37 | 30.78472 | 31.26131 | 24118 ft | 487 kts | 178° |
| 2026-05-04 22:37 | 30.75181 | 31.26748 | 23638 ft | 473 kts | 178° |
| 2026-05-04 22:37 | 30.71959 | 31.27344 | 22317 ft | 475 kts | 178° |
| 2026-05-04 22:37 | 30.68659 | 31.27943 | 20858 ft | 484 kts | 178° |
| 2026-05-04 22:38 | 30.65289 | 31.28562 | 19955 ft | 491 kts | 178° |
| 2026-05-04 22:38 | 30.61921 | 31.29214 | 19411 ft | 489 kts | 177° |
| 2026-05-04 22:38 | 30.58569 | 31.29910 | 18923 ft | 487 kts | 176° |
| 2026-05-04 22:38 | 30.55261 | 31.30673 | 18697 ft | 478 kts | 174° |
| 2026-05-04 22:39 | 30.52134 | 31.31400 | 18509 ft | 449 kts | 179° |
| 2026-05-04 22:39 | 30.49108 | 31.31810 | 18286 ft | 427 kts | 181° |
| 2026-05-04 22:39 | 30.46209 | 31.32198 | 18028 ft | 410 kts | 180° |
| 2026-05-04 22:39 | 30.43436 | 31.32636 | 17784 ft | 395 kts | 180° |
| 2026-05-04 22:40 | 30.40736 | 31.33100 | 17171 ft | 390 kts | 179° |
| 2026-05-04 22:40 | 30.38051 | 31.33576 | 16428 ft | 389 kts | 179° |
| 2026-05-04 22:40 | 30.35383 | 31.34059 | 15805 ft | 386 kts | 178° |
| 2026-05-04 22:40 | 30.32743 | 31.34541 | 15193 ft | 383 kts | 178° |
| 2026-05-04 22:41 | 30.30121 | 31.35022 | 14636 ft | 379 kts | 178° |
| 2026-05-04 22:41 | 30.27521 | 31.35499 | 14115 ft | 375 kts | 177° |
| 2026-05-04 22:41 | 30.25016 | 31.35960 | 13848 ft | 363 kts | 178° |
| 2026-05-04 22:41 | 30.22568 | 31.36411 | 13623 ft | 350 kts | 178° |
| 2026-05-04 22:42 | 30.20199 | 31.36848 | 13442 ft | 337 kts | 178° |
| 2026-05-04 22:42 | 30.17950 | 31.37261 | 13284 ft | 324 kts | 178° |
| 2026-05-04 22:42 | 30.15754 | 31.37663 | 13037 ft | 316 kts | 178° |
| 2026-05-04 22:42 | 30.14033 | 31.37975 | 12742 ft | 313 kts | 178° |
| 2026-05-04 22:43 | 30.12938 | 31.38173 | 12521 ft | 312 kts | 178° |
| 2026-05-04 22:43 | 30.10803 | 31.38558 | 12112 ft | 310 kts | 178° |
| 2026-05-04 22:43 | 30.08677 | 31.38816 | 11685 ft | 301 kts | 190° |
| 2026-05-04 22:43 | 30.06734 | 31.38195 | 11263 ft | 285 kts | 212° |
| 2026-05-04 22:44 | 30.04961 | 31.37189 | 10858 ft | 284 kts | 212° |
| 2026-05-04 22:44 | 30.03199 | 31.36218 | 10464 ft | 284 kts | 211° |
| 2026-05-04 22:44 | 30.01395 | 31.35286 | 10082 ft | 284 kts | 210° |
| 2026-05-04 22:44 | 29.99583 | 31.34387 | 9665 ft | 283 kts | 209° |
| 2026-05-04 22:45 | 29.97776 | 31.33512 | 9255 ft | 282 kts | 208° |
| 2026-05-04 22:45 | 29.94179 | 31.31779 | 8476 ft | 279 kts | 208° |
| 2026-05-04 22:45 | 29.92389 | 31.30918 | 8095 ft | 277 kts | 208° |
| 2026-05-04 22:46 | 29.90641 | 31.30076 | 7719 ft | 276 kts | 208° |
| 2026-05-04 22:46 | 29.88860 | 31.29219 | 7333 ft | 275 kts | 207° |
| 2026-05-04 22:46 | 29.87091 | 31.28368 | 6952 ft | 274 kts | 207° |
| 2026-05-04 22:46 | 29.85510 | 31.27272 | 6579 ft | 265 kts | 228° |
| 2026-05-04 22:47 | 29.84508 | 31.25558 | 6160 ft | 256 kts | 252° |
| 2026-05-04 22:47 | 29.84067 | 31.23584 | 5754 ft | 253 kts | 261° |
| 2026-05-04 22:47 | 29.83994 | 31.21583 | 5366 ft | 250 kts | 277° |
| 2026-05-04 22:47 | 29.84409 | 31.19659 | 4969 ft | 247 kts | 295° |
| 2026-05-04 22:48 | 29.85409 | 31.18068 | 4563 ft | 246 kts | 317° |
| 2026-05-04 22:48 | 29.86333 | 31.17316 | 4295 ft | 247 kts | 331° |
| 2026-05-04 22:48 | 29.88513 | 31.16587 | 3786 ft | 248 kts | 352° |
| 2026-05-04 22:48 | 29.90229 | 31.16793 | 3416 ft | 251 kts | 15° |
| 2026-05-04 22:49 | 29.91276 | 31.17379 | 3176 ft | 254 kts | 30° |
| 2026-05-04 22:49 | 29.92658 | 31.18664 | 2844 ft | 255 kts | 37° |
| 2026-05-04 22:49 | 29.93990 | 31.20006 | 2542 ft | 251 kts | 38° |
| 2026-05-04 22:49 | 29.95682 | 31.21698 | 2472 ft | 232 kts | 37° |
| 2026-05-04 22:50 | 29.96490 | 31.22499 | 2468 ft | 232 kts | 37° |
| 2026-05-04 22:50 | 29.97687 | 31.23689 | 2476 ft | 232 kts | 37° |
| 2026-05-04 22:50 | 29.99197 | 31.25455 | 2488 ft | 232 kts | 45° |
| 2026-05-04 22:50 | 29.99888 | 31.26382 | 2489 ft | 220 kts | 45° |
| 2026-05-04 22:51 | 30.00839 | 31.27659 | 2528 ft | 203 kts | 45° |
| 2026-05-04 22:51 | 30.01725 | 31.28850 | 2524 ft | 189 kts | 45° |
| 2026-05-04 22:51 | 30.02517 | 31.29976 | 2493 ft | 172 kts | 47° |
| 2026-05-04 22:51 | 30.03249 | 31.30964 | 2467 ft | 152 kts | 44° |
| 2026-05-04 22:52 | 30.03930 | 31.31868 | 2439 ft | 148 kts | 43° |
| 2026-05-04 22:52 | 30.04607 | 31.32765 | 2277 ft | 148 kts | 43° |
| 2026-05-04 22:52 | 30.05260 | 31.33633 | 2089 ft | 134 kts | 43° |
| 2026-05-04 22:52 | 30.05859 | 31.34424 | 1895 ft | 131 kts | 43° |
| 2026-05-04 22:53 | 30.06461 | 31.35221 | 1720 ft | 131 kts | 43° |
| 2026-05-04 22:53 | 30.07061 | 31.36018 | 1535 ft | 132 kts | 44° |
| 2026-05-04 22:53 | 30.07662 | 31.36821 | 1343 ft | 131 kts | 45° |
| 2026-05-04 22:53 | 30.08246 | 31.37615 | 1100 ft | 131 kts | 45° |
| 2026-05-04 22:54 | 30.08850 | 31.38403 | 815 ft | 130 kts | 42° |
| 2026-05-04 22:54 | 30.09484 | 31.39165 | 606 ft | 132 kts | 46° |
| 2026-05-04 22:54 | 30.10073 | 31.39971 | 403 ft | 131 kts | 46° |
| 2026-05-04 22:54 | 30.10617 | 31.40688 | 379 ft | 93 kts | 48° |
| 2026-05-04 22:55 | 30.10915 | 31.41094 | 378 ft | 50 kts | 44° |
| 2026-05-04 22:55 | 30.11136 | 31.41379 | 379 ft | 41 kts | 47° |
| 2026-05-04 22:55 | 30.11335 | 31.41566 | 379 ft | 30 kts | 27° |
| 2026-05-04 22:55 | 30.11439 | 31.41614 | 380 ft | 10 kts | 19° |
| 2026-05-04 22:56 | 30.11456 | 31.41620 | 380 ft | 2 kts | 15° |
| 2026-05-04 22:56 | 30.11477 | 31.41627 | 380 ft | 4 kts | 15° |
| 2026-05-04 22:56 | 30.11499 | 31.41633 | 380 ft | 6 kts | 9° |
| 2026-05-04 22:58 | 30.11507 | 31.41633 | 380 ft | 4 kts | 356° |
| 2026-05-04 22:58 | 30.11518 | 31.41632 | 380 ft | 3 kts | 355° |
| 2026-05-04 22:58 | 30.11546 | 31.41628 | 380 ft | 5 kts | 352° |
| 2026-05-04 22:58 | 30.11590 | 31.41609 | 380 ft | 8 kts | 338° |
| 2026-05-04 22:59 | 30.11653 | 31.41584 | 380 ft | 11 kts | 346° |
| 2026-05-04 22:59 | 30.11694 | 31.41528 | 380 ft | 10 kts | 262° |
| 2026-05-04 22:59 | 30.11680 | 31.41469 | 380 ft | 0 kts | 253° |
| 2026-05-04 23:00 | 30.11679 | 31.41466 | 380 ft | 2 kts | 253° |
| 2026-05-04 23:00 | 30.11672 | 31.41439 | 380 ft | 6 kts | 253° |
| 2026-05-04 23:01 | 30.11657 | 31.41382 | 380 ft | 9 kts | 252° |
| 2026-05-04 23:01 | 30.11633 | 31.41295 | 380 ft | 13 kts | 251° |
| 2026-05-04 23:01 | 30.11575 | 31.41215 | 380 ft | 15 kts | 183° |
| 2026-05-04 23:01 | 30.11463 | 31.41232 | 380 ft | 18 kts | 199° |
| 2026-05-04 23:02 | 30.11393 | 31.41164 | 380 ft | 11 kts | 229° |
| 2026-05-04 23:02 | 30.11340 | 31.41093 | 380 ft | 9 kts | 229° |
| 2026-05-04 23:02 | 30.11292 | 31.41029 | 380 ft | 11 kts | 229° |
| 2026-05-04 23:02 | 30.11282 | 31.41015 | 380 ft | 1 kts | 229° |
| 2026-05-04 23:03 | 30.11281 | 31.41014 | 380 ft | 0 kts | 229° |
| 2026-05-04 23:04 | 30.11271 | 31.41002 | 380 ft | 8 kts | 229° |
| 2026-05-04 23:05 | 30.11216 | 31.40927 | 380 ft | 14 kts | 229° |
| 2026-05-04 23:05 | 30.11147 | 31.40834 | 380 ft | 16 kts | 229° |
| 2026-05-04 23:05 | 30.11069 | 31.40729 | 380 ft | 13 kts | 229° |
| 2026-05-04 23:05 | 30.11003 | 31.40645 | 380 ft | 15 kts | 228° |
| 2026-05-04 23:06 | 30.10927 | 31.40546 | 380 ft | 18 kts | 232° |
| 2026-05-04 23:06 | 30.10930 | 31.40435 | 380 ft | 11 kts | 289° |
| 2026-05-04 23:06 | 30.10957 | 31.40345 | 380 ft | 13 kts | 289° |
| 2026-05-04 23:06 | 30.10975 | 31.40264 | 380 ft | 5 kts | 282° |
| 2026-05-04 23:07 | 30.10997 | 31.40226 | 380 ft | 7 kts | 331° |
| 2026-05-04 23:07 | 30.11058 | 31.40230 | 380 ft | 8 kts | 17° |
| 2026-05-04 23:07 | 30.11082 | 31.40239 | 380 ft | 0 kts | 18° |
| 2026-05-04 23:10 | 30.11081 | 31.40239 | 380 ft | 0 kts | 18° |